Vicco, Kentucky
Current Conditions -  °F | °C
As of 9:53 PM on Friday 19 Dec 2014 (Local Time) from KJKL Reporting Station
Clear Clear  
Wind Chill: 23°   Ceiling: Unl
Heat Index: 28°   Visibility: 10mi
Dew Point: 21°   Wind: 5mph
Humidity: 75%   Direction: NA
Pressure: 30.22"   Gusts: NA
Location:  37.22°N, 83.06°W
Report Text: KJKL 200253Z AUTO VRB04KT 10SM CLR M02/M06 A3022 RMK AO2 SLP246 T10221061 58003
Loading
Personal Weather Stations






























Interactive Weather Map New forecast layout! Learn more

10-Day Weather Forecast

Advertisements
Track Severe Weather on mobile